sensor_id;sensor_type;location;lat;lon;timestamp;pressure;altitude;pressure_sealevel;temperature;humidity
64889;BME280;51386;53.082;8.816;2024-02-16T00:00:14;101063.09;;;14.31;71.19
64889;BME280;51386;53.082;8.816;2024-02-16T00:02:44;101065.94;;;14.30;71.19
64889;BME280;51386;53.082;8.816;2024-02-16T00:05:14;101074.44;;;14.25;71.07
64889;BME280;51386;53.082;8.816;2024-02-16T00:07:42;101063.03;;;14.24;70.92
64889;BME280;51386;53.082;8.816;2024-02-16T00:10:11;101053.47;;;14.23;71.02
64889;BME280;51386;53.082;8.816;2024-02-16T00:12:42;101046.72;;;14.21;70.61
64889;BME280;51386;53.082;8.816;2024-02-16T00:15:10;101050.72;;;14.17;70.79
64889;BME280;51386;53.082;8.816;2024-02-16T00:17:39;101044.66;;;14.16;70.85
64889;BME280;51386;53.082;8.816;2024-02-16T00:20:08;101052.75;;;14.15;70.97
64889;BME280;51386;53.082;8.816;2024-02-16T00:22:36;101041.53;;;14.13;70.98
64889;BME280;51386;53.082;8.816;2024-02-16T00:25:05;101045.38;;;14.10;71.15
64889;BME280;51386;53.082;8.816;2024-02-16T00:27:34;101048.03;;;14.10;71.03
64889;BME280;51386;53.082;8.816;2024-02-16T00:30:02;101049.84;;;14.10;70.69
64889;BME280;51386;53.082;8.816;2024-02-16T00:32:31;101051.50;;;14.11;71.08
64889;BME280;51386;53.082;8.816;2024-02-16T00:34:59;101054.97;;;14.11;70.63
64889;BME280;51386;53.082;8.816;2024-02-16T00:37:28;101050.50;;;14.12;70.88
64889;BME280;51386;53.082;8.816;2024-02-16T00:39:56;101048.66;;;14.12;70.48
64889;BME280;51386;53.082;8.816;2024-02-16T00:42:25;101043.19;;;14.14;70.91
64889;BME280;51386;53.082;8.816;2024-02-16T00:44:55;101045.84;;;14.14;70.58
64889;BME280;51386;53.082;8.816;2024-02-16T00:47:24;101033.59;;;14.13;70.18
64889;BME280;51386;53.082;8.816;2024-02-16T00:49:53;101038.91;;;14.13;70.43
64889;BME280;51386;53.082;8.816;2024-02-16T00:52:22;101026.69;;;14.12;70.62
64889;BME280;51386;53.082;8.816;2024-02-16T00:54:50;101037.28;;;14.12;70.46
64889;BME280;51386;53.082;8.816;2024-02-16T00:57:19;101032.34;;;14.09;70.49
64889;BME280;51386;53.082;8.816;2024-02-16T00:59:47;101021.13;;;14.07;70.38
64889;BME280;51386;53.082;8.816;2024-02-16T01:02:16;101017.84;;;14.05;70.41
64889;BME280;51386;53.082;8.816;2024-02-16T01:04:44;101022.50;;;14.03;70.20
64889;BME280;51386;53.082;8.816;2024-02-16T01:07:14;101024.16;;;14.04;70.31
64889;BME280;51386;53.082;8.816;2024-02-16T01:09:43;101024.16;;;14.04;70.49
64889;BME280;51386;53.082;8.816;2024-02-16T01:12:11;101027.44;;;14.06;70.52
64889;BME280;51386;53.082;8.816;2024-02-16T01:14:40;101021.13;;;14.07;70.28
64889;BME280;51386;53.082;8.816;2024-02-16T01:17:08;101019.13;;;14.09;70.37
64889;BME280;51386;53.082;8.816;2024-02-16T01:19:37;101020.72;;;14.10;70.44
64889;BME280;51386;53.082;8.816;2024-02-16T01:22:05;101008.16;;;14.12;70.24
64889;BME280;51386;53.082;8.816;2024-02-16T01:24:34;101021.41;;;14.12;70.18
64889;BME280;51386;53.082;8.816;2024-02-16T01:27:02;101015.28;;;14.11;70.18
64889;BME280;51386;53.082;8.816;2024-02-16T01:29:30;101015.28;;;14.11;70.37
64889;BME280;51386;53.082;8.816;2024-02-16T01:32:00;101020.72;;;14.10;70.28
64889;BME280;51386;53.082;8.816;2024-02-16T01:34:29;101015.44;;;14.10;70.05
64889;BME280;51386;53.082;8.816;2024-02-16T01:37:00;101011.19;;;14.09;69.90
64889;BME280;51386;53.082;8.816;2024-02-16T01:39:29;101010.34;;;14.08;70.07
64889;BME280;51386;53.082;8.816;2024-02-16T01:41:57;101003.41;;;14.07;69.92
64889;BME280;51386;53.082;8.816;2024-02-16T01:44:26;101001.78;;;14.06;69.96
64889;BME280;51386;53.082;8.816;2024-02-16T01:46:54;101007.06;;;14.06;70.19
64889;BME280;51386;53.082;8.816;2024-02-16T01:49:23;101007.91;;;14.07;70.16
64889;BME280;51386;53.082;8.816;2024-02-16T01:51:51;100999.13;;;14.06;70.29
64889;BME280;51386;53.082;8.816;2024-02-16T01:54:20;101006.88;;;14.08;70.00
64889;BME280;51386;53.082;8.816;2024-02-16T01:56:49;101004.22;;;14.08;70.33
64889;BME280;51386;53.082;8.816;2024-02-16T01:59:19;100999.56;;;14.10;70.05
64889;BME280;51386;53.082;8.816;2024-02-16T02:01:47;100990.00;;;14.09;70.09
64889;BME280;51386;53.082;8.816;2024-02-16T02:04:15;100994.47;;;14.08;69.63
64889;BME280;51386;53.082;8.816;2024-02-16T02:06:44;100993.66;;;14.08;69.97
64889;BME280;51386;53.082;8.816;2024-02-16T02:09:12;100991.19;;;14.06;69.93
64889;BME280;51386;53.082;8.816;2024-02-16T02:11:41;100977.13;;;14.06;69.86
64889;BME280;51386;53.082;8.816;2024-02-16T02:14:09;100978.97;;;14.05;69.92
64889;BME280;51386;53.082;8.816;2024-02-16T02:16:38;100973.66;;;14.05;69.75
64889;BME280;51386;53.082;8.816;2024-02-16T02:19:21;100960.63;;;14.04;69.75
64889;BME280;51386;53.082;8.816;2024-02-16T02:21:49;100958.00;;;14.04;69.70
64889;BME280;51386;53.082;8.816;2024-02-16T02:24:18;100957.78;;;14.05;69.98
64889;BME280;51386;53.082;8.816;2024-02-16T02:26:48;100956.97;;;14.05;69.78
64889;BME280;51386;53.082;8.816;2024-02-16T02:29:17;100951.66;;;14.05;69.66
64889;BME280;51386;53.082;8.816;2024-02-16T02:31:46;100944.75;;;14.04;69.53
64889;BME280;51386;53.082;8.816;2024-02-16T02:34:14;100944.75;;;14.04;69.65
64889;BME280;51386;53.082;8.816;2024-02-16T02:36:43;100944.75;;;14.04;69.50
64889;BME280;51386;53.082;8.816;2024-02-16T02:39:12;100940.28;;;14.04;69.20
64889;BME280;51386;53.082;8.816;2024-02-16T02:41:41;100947.03;;;14.07;69.51
64889;BME280;51386;53.082;8.816;2024-02-16T02:44:10;100943.34;;;14.08;69.72
64889;BME280;51386;53.082;8.816;2024-02-16T02:46:39;100937.88;;;14.09;69.63
64889;BME280;51386;53.082;8.816;2024-02-16T02:49:07;100936.69;;;14.12;69.39
64889;BME280;51386;53.082;8.816;2024-02-16T02:51:36;100933.00;;;14.13;69.06
64889;BME280;51386;53.082;8.816;2024-02-16T02:54:05;100928.75;;;14.12;69.05
64889;BME280;51386;53.082;8.816;2024-02-16T02:56:33;100929.38;;;14.14;68.97
64889;BME280;51386;53.082;8.816;2024-02-16T02:59:02;100930.97;;;14.15;68.92
64889;BME280;51386;53.082;8.816;2024-02-16T03:01:30;100923.66;;;14.17;69.04
64889;BME280;51386;53.082;8.816;2024-02-16T03:03:59;100925.31;;;14.18;68.87
64889;BME280;51386;53.082;8.816;2024-02-16T03:06:29;100924.50;;;14.17;68.77
64889;BME280;51386;53.082;8.816;2024-02-16T03:08:57;100918.00;;;14.20;68.85
64889;BME280;51386;53.082;8.816;2024-02-16T03:11:26;100911.88;;;14.19;68.32
64889;BME280;51386;53.082;8.816;2024-02-16T03:13:54;100906.41;;;14.21;68.45
64889;BME280;51386;53.082;8.816;2024-02-16T03:16:23;100910.66;;;14.22;68.55
64889;BME280;51386;53.082;8.816;2024-02-16T03:18:52;100898.06;;;14.24;68.35
64889;BME280;51386;53.082;8.816;2024-02-16T03:21:23;100900.53;;;14.25;68.21
64889;BME280;51386;53.082;8.816;2024-02-16T03:23:51;100899.31;;;14.28;68.31
64889;BME280;51386;53.082;8.816;2024-02-16T03:26:20;100906.09;;;14.31;67.95
64889;BME280;51386;53.082;8.816;2024-02-16T03:28:48;100904.06;;;14.33;68.11
64889;BME280;51386;53.082;8.816;2024-02-16T03:31:18;100903.84;;;14.34;68.12
64889;BME280;51386;53.082;8.816;2024-02-16T03:33:49;100897.34;;;14.37;68.04
64889;BME280;51386;53.082;8.816;2024-02-16T03:36:20;100907.13;;;14.36;67.95
64889;BME280;51386;53.082;8.816;2024-02-16T03:38:49;100900.63;;;14.39;68.03
64889;BME280;51386;53.082;8.816;2024-02-16T03:41:22;100894.50;;;14.38;67.89
64889;BME280;51386;53.082;8.816;2024-02-16T03:43:51;100896.97;;;14.40;67.76
64889;BME280;51386;53.082;8.816;2024-02-16T03:46:19;100898.78;;;14.39;67.49
64889;BME280;51386;53.082;8.816;2024-02-16T03:48:48;100899.41;;;14.41;67.38
64889;BME280;51386;53.082;8.816;2024-02-16T03:51:17;100903.09;;;14.40;67.57
64889;BME280;51386;53.082;8.816;2024-02-16T03:53:46;100893.28;;;14.41;67.69
64889;BME280;51386;53.082;8.816;2024-02-16T03:56:20;100885.56;;;14.39;67.81
64889;BME280;51386;53.082;8.816;2024-02-16T03:58:49;100885.16;;;14.42;68.03
64889;BME280;51386;53.082;8.816;2024-02-16T04:01:17;100893.72;;;14.44;67.84
64889;BME280;51386;53.082;8.816;2024-02-16T04:03:45;100879.66;;;14.44;67.52
64889;BME280;51386;53.082;8.816;2024-02-16T04:06:14;100889.25;;;14.45;67.51
64889;BME280;51386;53.082;8.816;2024-02-16T04:08:42;100884.78;;;14.45;67.78
64889;BME280;51386;53.082;8.816;2024-02-16T04:11:12;100891.69;;;14.46;67.63
64889;BME280;51386;53.082;8.816;2024-02-16T04:13:41;100884.78;;;14.45;67.33
64889;BME280;51386;53.082;8.816;2024-02-16T04:16:09;100890.25;;;14.44;67.19
64889;BME280;51386;53.082;8.816;2024-02-16T04:18:38;100888.44;;;14.44;67.41
64889;BME280;51386;53.082;8.816;2024-02-16T04:21:06;100878.84;;;14.43;66.95
64889;BME280;51386;53.082;8.816;2024-02-16T04:23:35;100888.44;;;14.44;67.44
64889;BME280;51386;53.082;8.816;2024-02-16T04:26:03;100886.63;;;14.45;67.11
64889;BME280;51386;53.082;8.816;2024-02-16T04:28:35;100878.66;;;14.45;67.17
64889;BME280;51386;53.082;8.816;2024-02-16T04:31:04;100889.25;;;14.45;66.88
64889;BME280;51386;53.082;8.816;2024-02-16T04:33:32;100882.13;;;14.45;66.96
64889;BME280;51386;53.082;8.816;2024-02-16T04:36:01;100879.50;;;14.45;66.90
64889;BME280;51386;53.082;8.816;2024-02-16T04:38:29;100875.81;;;14.46;66.75
64889;BME280;51386;53.082;8.816;2024-02-16T04:40:57;100880.09;;;14.47;66.75
64889;BME280;51386;53.082;8.816;2024-02-16T04:43:26;100880.28;;;14.46;66.59
64889;BME280;51386;53.082;8.816;2024-02-16T04:45:54;100877.84;;;14.44;66.77
64889;BME280;51386;53.082;8.816;2024-02-16T04:48:23;100872.53;;;14.44;66.91
64889;BME280;51386;53.082;8.816;2024-02-16T04:50:51;100877.84;;;14.44;66.77
64889;BME280;51386;53.082;8.816;2024-02-16T04:53:20;100873.38;;;14.45;66.56
64889;BME280;51386;53.082;8.816;2024-02-16T04:55:48;100877.84;;;14.44;66.56
64889;BME280;51386;53.082;8.816;2024-02-16T04:58:16;100869.06;;;14.44;66.55
64889;BME280;51386;53.082;8.816;2024-02-16T05:00:45;100880.03;;;14.41;66.50
64889;BME280;51386;53.082;8.816;2024-02-16T05:03:15;100881.09;;;14.40;66.35
64889;BME280;51386;53.082;8.816;2024-02-16T05:05:43;100892.06;;;14.37;66.51
64889;BME280;51386;53.082;8.816;2024-02-16T05:08:12;100880.84;;;14.35;66.60
64889;BME280;51386;53.082;8.816;2024-02-16T05:10:40;100872.06;;;14.34;66.63
64889;BME280;51386;53.082;8.816;2024-02-16T05:13:09;100870.03;;;14.36;66.47
64889;BME280;51386;53.082;8.816;2024-02-16T05:15:39;100867.22;;;14.38;66.45
64889;BME280;51386;53.082;8.816;2024-02-16T05:18:08;100864.38;;;14.39;66.15
64889;BME280;51386;53.082;8.816;2024-02-16T05:20:36;100863.53;;;14.39;66.21
64889;BME280;51386;53.082;8.816;2024-02-16T05:23:04;100867.41;;;14.36;66.26
64889;BME280;51386;53.082;8.816;2024-02-16T05:25:33;100859.44;;;14.36;66.43
64889;BME280;51386;53.082;8.816;2024-02-16T05:28:01;100861.09;;;14.37;66.45
64889;BME280;51386;53.082;8.816;2024-02-16T05:30:30;100850.50;;;14.37;66.32
64889;BME280;51386;53.082;8.816;2024-02-16T05:32:59;100853.38;;;14.36;66.08
64889;BME280;51386;53.082;8.816;2024-02-16T05:35:28;100861.47;;;14.34;66.14
64889;BME280;51386;53.082;8.816;2024-02-16T05:37:59;100865.16;;;14.33;65.97
64889;BME280;51386;53.082;8.816;2024-02-16T05:40:34;100851.28;;;14.31;66.06
64889;BME280;51386;53.082;8.816;2024-02-16T05:43:13;100847.97;;;14.29;66.18
64889;BME280;51386;53.082;8.816;2024-02-16T05:45:41;100852.66;;;14.27;66.16
64889;BME280;51386;53.082;8.816;2024-02-16T05:48:10;100850.38;;;14.24;65.96
64889;BME280;51386;53.082;8.816;2024-02-16T05:50:38;100850.38;;;14.24;66.39
64889;BME280;51386;53.082;8.816;2024-02-16T05:53:07;100841.84;;;14.22;66.25
64889;BME280;51386;53.082;8.816;2024-02-16T05:55:38;100843.84;;;14.20;66.16
64889;BME280;51386;53.082;8.816;2024-02-16T05:58:06;100848.53;;;14.18;66.36
64889;BME280;51386;53.082;8.816;2024-02-16T06:00:34;100842.63;;;14.16;66.06
64889;BME280;51386;53.082;8.816;2024-02-16T06:03:03;100850.75;;;14.14;66.28
64889;BME280;51386;53.082;8.816;2024-02-16T06:05:31;100855.25;;;14.14;66.45
64889;BME280;51386;53.082;8.816;2024-02-16T06:08:01;100850.34;;;14.11;66.44
64889;BME280;51386;53.082;8.816;2024-02-16T06:10:29;100850.53;;;14.09;66.31
64889;BME280;51386;53.082;8.816;2024-02-16T06:12:58;100861.13;;;14.09;66.35
64889;BME280;51386;53.082;8.816;2024-02-16T06:15:26;100853.97;;;14.10;66.52
64889;BME280;51386;53.082;8.816;2024-02-16T06:17:56;100856.44;;;14.11;66.15
64889;BME280;51386;53.082;8.816;2024-02-16T06:20:24;100865.84;;;14.14;66.17
64889;BME280;51386;53.082;8.816;2024-02-16T06:22:53;100856.88;;;14.15;66.13
64889;BME280;51386;53.082;8.816;2024-02-16T06:25:21;100859.75;;;14.20;66.61
64889;BME280;51386;53.082;8.816;2024-02-16T06:27:50;100858.34;;;14.24;66.43
64889;BME280;51386;53.082;8.816;2024-02-16T06:30:18;100871.19;;;14.27;66.06
64889;BME280;51386;53.082;8.816;2024-02-16T06:32:46;100868.19;;;14.30;66.17
64889;BME280;51386;53.082;8.816;2024-02-16T06:35:15;100872.47;;;14.31;65.67
64889;BME280;51386;53.082;8.816;2024-02-16T06:37:44;100872.06;;;14.34;65.96
64889;BME280;51386;53.082;8.816;2024-02-16T06:40:12;100875.16;;;14.38;66.12
64889;BME280;51386;53.082;8.816;2024-02-16T06:42:41;100884.94;;;14.37;65.40
64889;BME280;51386;53.082;8.816;2024-02-16T06:45:09;100881.47;;;14.37;65.44
64889;BME280;51386;53.082;8.816;2024-02-16T06:47:39;100891.22;;;14.36;65.42
64889;BME280;51386;53.082;8.816;2024-02-16T06:50:08;100885.75;;;14.38;65.47
64889;BME280;51386;53.082;8.816;2024-02-16T06:52:36;100894.50;;;14.38;65.43
64889;BME280;51386;53.082;8.816;2024-02-16T06:55:05;100889.19;;;14.38;65.27
64889;BME280;51386;53.082;8.816;2024-02-16T06:57:34;100896.97;;;14.40;65.36
64889;BME280;51386;53.082;8.816;2024-02-16T07:00:04;100897.78;;;14.40;65.11
64889;BME280;51386;53.082;8.816;2024-02-16T07:02:33;100895.16;;;14.40;65.29
64889;BME280;51386;53.082;8.816;2024-02-16T07:05:01;100895.75;;;14.42;65.22
64889;BME280;51386;53.082;8.816;2024-02-16T07:07:30;100898.03;;;14.45;65.44
64889;BME280;51386;53.082;8.816;2024-02-16T07:10:02;100891.69;;;14.46;65.62
64889;BME280;51386;53.082;8.816;2024-02-16T07:12:31;100897.63;;;14.48;65.29
64889;BME280;51386;53.082;8.816;2024-02-16T07:15:02;100889.28;;;14.51;65.43
64889;BME280;51386;53.082;8.816;2024-02-16T07:17:30;100896.63;;;14.56;65.65
64889;BME280;51386;53.082;8.816;2024-02-16T07:19:59;100898.09;;;14.58;65.28
64889;BME280;51386;53.082;8.816;2024-02-16T07:22:28;100893.41;;;14.60;65.65
64889;BME280;51386;53.082;8.816;2024-02-16T07:24:56;100889.34;;;14.64;65.55
64889;BME280;51386;53.082;8.816;2024-02-16T07:27:24;100891.81;;;14.66;65.42
64889;BME280;51386;53.082;8.816;2024-02-16T07:29:53;100882.03;;;14.66;65.33
64889;BME280;51386;53.082;8.816;2024-02-16T07:32:21;100879.38;;;14.66;65.42
64889;BME280;51386;53.082;8.816;2024-02-16T07:34:50;100872.06;;;14.68;65.68
64889;BME280;51386;53.082;8.816;2024-02-16T07:37:19;100871.84;;;14.70;65.64
64889;BME280;51386;53.082;8.816;2024-02-16T07:39:48;100878.56;;;14.72;65.30
64889;BME280;51386;53.082;8.816;2024-02-16T07:42:16;100869.41;;;14.75;65.51
64889;BME280;51386;53.082;8.816;2024-02-16T07:44:44;100877.38;;;14.81;65.51
64889;BME280;51386;53.082;8.816;2024-02-16T07:47:13;100880.88;;;14.88;65.32
64889;BME280;51386;53.082;8.816;2024-02-16T07:49:41;100879.66;;;14.98;65.11
64889;BME280;51386;53.082;8.816;2024-02-16T07:52:10;100875.22;;;15.05;65.05
64889;BME280;51386;53.082;8.816;2024-02-16T07:54:38;100880.53;;;15.11;65.04
64889;BME280;51386;53.082;8.816;2024-02-16T07:57:07;100870.78;;;15.18;64.77
64889;BME280;51386;53.082;8.816;2024-02-16T07:59:35;100882.38;;;15.24;64.35
64889;BME280;51386;53.082;8.816;2024-02-16T08:02:04;100881.00;;;15.28;64.20
64889;BME280;51386;53.082;8.816;2024-02-16T08:04:32;100883.84;;;15.33;64.34
64889;BME280;51386;53.082;8.816;2024-02-16T08:07:00;100880.38;;;15.39;64.18
64889;BME280;51386;53.082;8.816;2024-02-16T08:09:29;100873.03;;;15.41;63.63
64889;BME280;51386;53.082;8.816;2024-02-16T08:11:58;100877.34;;;15.42;63.73
64889;BME280;51386;53.082;8.816;2024-02-16T08:14:26;100873.66;;;15.43;63.80
64889;BME280;51386;53.082;8.816;2024-02-16T08:16:54;100867.16;;;15.45;63.65
64889;BME280;51386;53.082;8.816;2024-02-16T08:19:38;100867.56;;;15.49;63.47
64889;BME280;51386;53.082;8.816;2024-02-16T08:22:08;100872.06;;;15.48;62.78
64889;BME280;51386;53.082;8.816;2024-02-16T08:24:37;100869.19;;;15.50;62.90
64889;BME280;51386;53.082;8.816;2024-02-16T08:27:06;100870.84;;;15.51;62.61
64889;BME280;51386;53.082;8.816;2024-02-16T08:29:34;100872.28;;;15.47;62.44
64889;BME280;51386;53.082;8.816;2024-02-16T08:32:03;100868.78;;;15.46;62.14
64889;BME280;51386;53.082;8.816;2024-02-16T08:34:32;100862.66;;;15.46;62.28
64889;BME280;51386;53.082;8.816;2024-02-16T08:37:00;100857.38;;;15.46;61.88
64889;BME280;51386;53.082;8.816;2024-02-16T08:39:30;100867.97;;;15.46;62.03
64889;BME280;51386;53.082;8.816;2024-02-16T08:41:58;100868.59;;;15.48;62.17
64889;BME280;51386;53.082;8.816;2024-02-16T08:44:27;100863.88;;;15.50;62.01
64889;BME280;51386;53.082;8.816;2024-02-16T08:46:56;100871.22;;;15.48;61.88
64889;BME280;51386;53.082;8.816;2024-02-16T08:49:24;100872.66;;;15.57;61.54
64889;BME280;51386;53.082;8.816;2024-02-16T08:51:53;100869.22;;;15.63;61.71
64889;BME280;51386;53.082;8.816;2024-02-16T08:54:21;100879.41;;;15.73;61.43
64889;BME280;51386;53.082;8.816;2024-02-16T08:56:49;100876.13;;;15.84;61.28
64889;BME280;51386;53.082;8.816;2024-02-16T08:59:18;100881.63;;;15.95;61.14
64889;BME280;51386;53.082;8.816;2024-02-16T09:01:46;100882.25;;;16.04;60.63
64889;BME280;51386;53.082;8.816;2024-02-16T09:04:15;100874.88;;;16.12;60.77
64889;BME280;51386;53.082;8.816;2024-02-16T09:06:44;100869.75;;;16.24;60.58
64889;BME280;51386;53.082;8.816;2024-02-16T09:09:12;100878.94;;;16.35;60.34
64889;BME280;51386;53.082;8.816;2024-02-16T09:11:43;100885.44;;;16.39;59.48
64889;BME280;51386;53.082;8.816;2024-02-16T09:14:11;100877.25;;;16.47;59.73
64889;BME280;51386;53.082;8.816;2024-02-16T09:16:40;100881.34;;;16.56;59.43
64889;BME280;51386;53.082;8.816;2024-02-16T09:19:09;100889.09;;;16.64;59.01
64889;BME280;51386;53.082;8.816;2024-02-16T09:21:37;100887.81;;;16.73;58.88
64889;BME280;51386;53.082;8.816;2024-02-16T09:24:06;100884.31;;;16.79;58.17
64889;BME280;51386;53.082;8.816;2024-02-16T09:26:38;100892.66;;;16.89;58.31
64889;BME280;51386;53.082;8.816;2024-02-16T09:29:06;100898.34;;;16.99;57.40
64889;BME280;51386;53.082;8.816;2024-02-16T09:31:35;100902.81;;;17.05;57.13
64889;BME280;51386;53.082;8.816;2024-02-16T09:34:03;100898.66;;;17.16;56.57
64889;BME280;51386;53.082;8.816;2024-02-16T09:36:32;100903.69;;;17.30;56.89
64889;BME280;51386;53.082;8.816;2024-02-16T09:39:03;100909.34;;;17.40;56.24
64889;BME280;51386;53.082;8.816;2024-02-16T09:41:35;100905.84;;;17.46;56.25
64889;BME280;51386;53.082;8.816;2024-02-16T09:44:06;100909.91;;;17.55;56.21
64889;BME280;51386;53.082;8.816;2024-02-16T09:46:34;100920.72;;;17.61;56.38
64889;BME280;51386;53.082;8.816;2024-02-16T09:49:04;100913.56;;;17.54;55.70
64889;BME280;51386;53.082;8.816;2024-02-16T09:51:37;100909.94;;;17.42;55.54
64889;BME280;51386;53.082;8.816;2024-02-16T09:54:06;100905.88;;;17.40;56.38
64889;BME280;51386;53.082;8.816;2024-02-16T09:56:36;100910.81;;;17.36;56.56
64889;BME280;51386;53.082;8.816;2024-02-16T09:59:04;100905.50;;;17.36;56.00
64889;BME280;51386;53.082;8.816;2024-02-16T10:01:35;100902.19;;;17.41;56.38
64889;BME280;51386;53.082;8.816;2024-02-16T10:04:07;100901.75;;;17.44;56.56
64889;BME280;51386;53.082;8.816;2024-02-16T10:06:48;100901.53;;;17.45;56.72
64889;BME280;51386;53.082;8.816;2024-02-16T10:09:25;100911.59;;;17.43;56.33
64889;BME280;51386;53.082;8.816;2024-02-16T10:11:54;100915.44;;;17.47;56.53
64889;BME280;51386;53.082;8.816;2024-02-16T10:14:23;100919.34;;;17.51;56.54
64889;BME280;51386;53.082;8.816;2024-02-16T10:17:05;100927.94;;;17.53;56.53
64889;BME280;51386;53.082;8.816;2024-02-16T10:19:35;100931.38;;;17.61;56.51
64889;BME280;51386;53.082;8.816;2024-02-16T10:22:11;100932.38;;;17.59;56.07
64889;BME280;51386;53.082;8.816;2024-02-16T10:24:40;100931.13;;;17.62;56.46
64889;BME280;51386;53.082;8.816;2024-02-16T10:27:17;100927.81;;;17.67;56.70
64889;BME280;51386;53.082;8.816;2024-02-16T10:29:47;100937.03;;;17.71;56.16
64889;BME280;51386;53.082;8.816;2024-02-16T10:32:18;100944.13;;;17.77;56.43
64889;BME280;51386;53.082;8.816;2024-02-16T10:34:48;100953.50;;;17.86;56.59
64889;BME280;51386;53.082;8.816;2024-02-16T10:37:17;100940.75;;;17.94;56.65
64889;BME280;51386;53.082;8.816;2024-02-16T10:39:47;100950.56;;;17.94;55.60
64889;BME280;51386;53.082;8.816;2024-02-16T10:42:21;100942.75;;;17.99;56.30
64889;BME280;51386;53.082;8.816;2024-02-16T10:44:52;100940.84;;;18.06;55.64
64889;BME280;51386;53.082;8.816;2024-02-16T10:47:21;100947.50;;;18.15;55.68
64889;BME280;51386;53.082;8.816;2024-02-16T10:49:50;100937.69;;;18.15;55.79
64889;BME280;51386;53.082;8.816;2024-02-16T10:52:20;100945.19;;;18.25;55.94
64889;BME280;51386;53.082;8.816;2024-02-16T10:54:49;100937.47;;;18.35;55.40
64889;BME280;51386;53.082;8.816;2024-02-16T10:57:18;100939.63;;;18.45;55.54
64889;BME280;51386;53.082;8.816;2024-02-16T10:59:46;100940.34;;;18.58;55.28
64889;BME280;51386;53.082;8.816;2024-02-16T11:02:15;100938.78;;;18.69;54.54
64889;BME280;51386;53.082;8.816;2024-02-16T11:04:46;100947.75;;;18.74;54.53
64889;BME280;51386;53.082;8.816;2024-02-16T11:07:18;100946.81;;;18.87;54.33
64889;BME280;51386;53.082;8.816;2024-02-16T11:09:50;100949.00;;;19.08;54.25
64889;BME280;51386;53.082;8.816;2024-02-16T11:12:18;100959.75;;;19.31;53.94
64889;BME280;51386;53.082;8.816;2024-02-16T11:14:47;100940.56;;;19.41;52.91
64889;BME280;51386;53.082;8.816;2024-02-16T11:17:22;100950.59;;;19.57;53.31
64889;BME280;51386;53.082;8.816;2024-02-16T11:19:54;100946.09;;;19.69;52.22
64889;BME280;51386;53.082;8.816;2024-02-16T11:22:27;100946.13;;;19.81;52.56
64889;BME280;51386;53.082;8.816;2024-02-16T11:24:58;100945.56;;;19.90;52.33
64889;BME280;51386;53.082;8.816;2024-02-16T11:27:31;100943.34;;;19.87;51.21
64889;BME280;51386;53.082;8.816;2024-02-16T11:30:01;100952.38;;;19.63;51.98
64889;BME280;51386;53.082;8.816;2024-02-16T11:32:32;100945.84;;;19.59;52.72
64889;BME280;51386;53.082;8.816;2024-02-16T11:35:07;100950.84;;;19.55;52.38
64889;BME280;51386;53.082;8.816;2024-02-16T11:37:36;100951.03;;;19.54;52.97
64889;BME280;51386;53.082;8.816;2024-02-16T11:40:06;100945.13;;;19.52;52.62
64889;BME280;51386;53.082;8.816;2024-02-16T11:42:36;100950.81;;;19.44;52.88
64889;BME280;51386;53.082;8.816;2024-02-16T11:45:05;100962.38;;;19.38;53.02
64889;BME280;51386;53.082;8.816;2024-02-16T11:47:34;100953.16;;;19.34;53.40
64889;BME280;51386;53.082;8.816;2024-02-16T11:50:09;100952.19;;;19.28;53.49
64889;BME280;51386;53.082;8.816;2024-02-16T11:52:41;100957.53;;;19.28;53.84
64889;BME280;51386;53.082;8.816;2024-02-16T11:55:11;100960.69;;;19.25;54.13
64889;BME280;51386;53.082;8.816;2024-02-16T11:57:40;100970.41;;;19.20;54.37
64889;BME280;51386;53.082;8.816;2024-02-16T12:00:09;100970.69;;;19.12;54.90
64889;BME280;51386;53.082;8.816;2024-02-16T12:02:43;100970.19;;;19.03;54.84
64889;BME280;51386;53.082;8.816;2024-02-16T12:05:14;100975.81;;;18.95;55.24
64889;BME280;51386;53.082;8.816;2024-02-16T12:07:43;100975.59;;;18.78;55.76
64889;BME280;51386;53.082;8.816;2024-02-16T12:10:15;100976.94;;;18.69;55.65
64889;BME280;51386;53.082;8.816;2024-02-16T12:12:43;100981.69;;;18.67;55.85
64889;BME280;51386;53.082;8.816;2024-02-16T12:15:12;100973.31;;;18.64;56.26
64889;BME280;51386;53.082;8.816;2024-02-16T12:17:41;100976.59;;;18.66;56.19
64889;BME280;51386;53.082;8.816;2024-02-16T12:20:13;100980.66;;;18.68;56.58
64889;BME280;51386;53.082;8.816;2024-02-16T12:22:42;100975.34;;;18.68;56.31
64889;BME280;51386;53.082;8.816;2024-02-16T12:25:10;100978.19;;;18.67;56.55
64889;BME280;51386;53.082;8.816;2024-02-16T12:27:40;100973.44;;;18.69;56.10
64889;BME280;51386;53.082;8.816;2024-02-16T12:30:09;100978.19;;;18.67;55.94
64889;BME280;51386;53.082;8.816;2024-02-16T12:32:39;100977.84;;;18.63;56.52
64889;BME280;51386;53.082;8.816;2024-02-16T12:35:08;100971.28;;;18.59;56.25
64889;BME280;51386;53.082;8.816;2024-02-16T12:37:36;100966.88;;;18.53;56.60
64889;BME280;51386;53.082;8.816;2024-02-16T12:40:06;100970.13;;;18.55;56.37
64889;BME280;51386;53.082;8.816;2024-02-16T12:42:35;100969.69;;;18.58;56.58
64889;BME280;51386;53.082;8.816;2024-02-16T12:45:04;100982.34;;;18.63;57.08
64889;BME280;51386;53.082;8.816;2024-02-16T12:47:32;100989.91;;;18.66;56.47
64889;BME280;51386;53.082;8.816;2024-02-16T12:50:01;100992.59;;;18.66;56.43
64889;BME280;51386;53.082;8.816;2024-02-16T12:52:30;100990.28;;;18.69;56.49
64889;BME280;51386;53.082;8.816;2024-02-16T12:55:12;100992.50;;;18.72;56.63
64889;BME280;51386;53.082;8.816;2024-02-16T12:57:42;100995.34;;;18.77;56.76
64889;BME280;51386;53.082;8.816;2024-02-16T13:00:11;101006.16;;;18.82;56.38